sensor_id;sensor_type;location;lat;lon;timestamp;pressure;altitude;pressure_sealevel;temperature;humidity
84020;BME280;74102;49.084;13.694;2024-02-04T00:00:17;93882.31;;;5.66;81.07
84020;BME280;74102;49.084;13.694;2024-02-04T00:02:43;93882.56;;;5.63;81.50
84020;BME280;74102;49.084;13.694;2024-02-04T00:05:08;93864.53;;;5.62;81.33
84020;BME280;74102;49.084;13.694;2024-02-04T00:07:34;93873.53;;;5.58;81.28
84020;BME280;74102;49.084;13.694;2024-02-04T00:09:59;93878.97;;;5.55;81.02
84020;BME280;74102;49.084;13.694;2024-02-04T00:12:25;93874.38;;;5.58;81.44
84020;BME280;74102;49.084;13.694;2024-02-04T00:14:50;93896.88;;;5.58;81.13
84020;BME280;74102;49.084;13.694;2024-02-04T00:17:16;93886.88;;;5.53;80.78
84020;BME280;74102;49.084;13.694;2024-02-04T00:19:42;93886.06;;;5.53;80.29
84020;BME280;74102;49.084;13.694;2024-02-04T00:22:07;93895.06;;;5.49;80.01
84020;BME280;74102;49.084;13.694;2024-02-04T00:24:33;93899.16;;;5.51;79.70
84020;BME280;74102;49.084;13.694;2024-02-04T00:26:58;93900.94;;;5.51;79.57
84020;BME280;74102;49.084;13.694;2024-02-04T00:29:24;93894.50;;;5.45;79.56
84020;BME280;74102;49.084;13.694;2024-02-04T00:31:49;93905.44;;;5.49;79.18
84020;BME280;74102;49.084;13.694;2024-02-04T00:34:14;93907.78;;;5.52;79.23
84020;BME280;74102;49.084;13.694;2024-02-04T00:36:40;93889.06;;;5.48;78.71
84020;BME280;74102;49.084;13.694;2024-02-04T00:39:06;93889.88;;;5.49;78.57
84020;BME280;74102;49.084;13.694;2024-02-04T00:41:33;93885.13;;;5.54;78.51
84020;BME280;74102;49.084;13.694;2024-02-04T00:43:58;93880.59;;;5.56;78.65
84020;BME280;74102;49.084;13.694;2024-02-04T00:46:24;93885.22;;;5.52;78.32
84020;BME280;74102;49.084;13.694;2024-02-04T00:48:49;93890.81;;;5.48;78.28
84020;BME280;74102;49.084;13.694;2024-02-04T00:51:14;93896.69;;;5.50;78.12
84020;BME280;74102;49.084;13.694;2024-02-04T00:53:43;93895.84;;;5.49;78.38
84020;BME280;74102;49.084;13.694;2024-02-04T00:56:08;93907.88;;;5.50;78.27
84020;BME280;74102;49.084;13.694;2024-02-04T00:58:35;93903.16;;;5.55;78.74
84020;BME280;74102;49.084;13.694;2024-02-04T01:01:00;93897.00;;;5.56;78.81
84020;BME280;74102;49.084;13.694;2024-02-04T01:03:25;93902.19;;;5.56;78.81
84020;BME280;74102;49.084;13.694;2024-02-04T01:05:51;93887.03;;;5.52;78.98
84020;BME280;74102;49.084;13.694;2024-02-04T01:08:16;93894.28;;;5.58;79.59
84020;BME280;74102;49.084;13.694;2024-02-04T01:10:42;93901.63;;;5.53;79.75
84020;BME280;74102;49.084;13.694;2024-02-04T01:13:07;93892.91;;;5.54;79.88
84020;BME280;74102;49.084;13.694;2024-02-04T01:15:32;93888.66;;;5.53;80.28
84020;BME280;74102;49.084;13.694;2024-02-04T01:17:58;93881.84;;;5.52;80.76
84020;BME280;74102;49.084;13.694;2024-02-04T01:20:23;93880.88;;;5.53;79.97
84020;BME280;74102;49.084;13.694;2024-02-04T01:22:48;93893.97;;;5.51;80.67
84020;BME280;74102;49.084;13.694;2024-02-04T01:25:14;93879.25;;;5.52;80.77
84020;BME280;74102;49.084;13.694;2024-02-04T01:27:39;93888.53;;;5.54;80.49
84020;BME280;74102;49.084;13.694;2024-02-04T01:30:05;93875.41;;;5.56;80.33
84020;BME280;74102;49.084;13.694;2024-02-04T01:32:31;93878.56;;;5.59;80.33
84020;BME280;74102;49.084;13.694;2024-02-04T01:34:56;93875.88;;;5.61;80.40
84020;BME280;74102;49.084;13.694;2024-02-04T01:37:21;93868.09;;;5.61;80.05
84020;BME280;74102;49.084;13.694;2024-02-04T01:39:47;93876.81;;;5.60;80.24
84020;BME280;74102;49.084;13.694;2024-02-04T01:42:12;93890.50;;;5.62;79.96
84020;BME280;74102;49.084;13.694;2024-02-04T01:44:38;93872.56;;;5.59;80.34
84020;BME280;74102;49.084;13.694;2024-02-04T01:47:03;93873.28;;;5.61;80.72
84020;BME280;74102;49.084;13.694;2024-02-04T01:49:28;93875.88;;;5.61;80.51
84020;BME280;74102;49.084;13.694;2024-02-04T01:51:55;93852.25;;;5.64;80.45
84020;BME280;74102;49.084;13.694;2024-02-04T01:54:23;93847.06;;;5.64;80.30
84020;BME280;74102;49.084;13.694;2024-02-04T01:56:51;93858.28;;;5.64;80.48
84020;BME280;74102;49.084;13.694;2024-02-04T01:59:18;93867.81;;;5.64;81.08
84020;BME280;74102;49.084;13.694;2024-02-04T02:01:45;93864.53;;;5.62;80.89
84020;BME280;74102;49.084;13.694;2024-02-04T02:04:11;93880.59;;;5.56;81.11
84020;BME280;74102;49.084;13.694;2024-02-04T02:06:38;93867.53;;;5.57;81.37
84020;BME280;74102;49.084;13.694;2024-02-04T02:09:07;93856.31;;;5.57;81.46
84020;BME280;74102;49.084;13.694;2024-02-04T02:11:44;93861.25;;;5.60;80.92
84020;BME280;74102;49.084;13.694;2024-02-04T02:14:19;93869.75;;;5.62;80.60
84020;BME280;74102;49.084;13.694;2024-02-04T02:16:48;93860.97;;;5.63;80.68
84020;BME280;74102;49.084;13.694;2024-02-04T02:24:43;93867.25;;;5.60;80.98
84020;BME280;74102;49.084;13.694;2024-02-04T02:27:10;93872.06;;;5.65;80.54
84020;BME280;74102;49.084;13.694;2024-02-04T02:29:35;93873.69;;;5.66;80.64
84020;BME280;74102;49.084;13.694;2024-02-04T02:32:01;93871.94;;;5.66;80.98
84020;BME280;74102;49.084;13.694;2024-02-04T02:34:29;93869.91;;;5.70;81.02
84020;BME280;74102;49.084;13.694;2024-02-04T02:37:27;93860.97;;;5.63;81.11
84020;BME280;74102;49.084;13.694;2024-02-04T02:39:56;93864.41;;;5.63;81.41
84020;BME280;74102;49.084;13.694;2024-02-04T02:42:23;93855.53;;;5.66;80.69
84020;BME280;74102;49.084;13.694;2024-02-04T02:44:50;93868.09;;;5.61;80.91
84020;BME280;74102;49.084;13.694;2024-02-04T02:47:17;93869.75;;;5.62;81.03
84020;BME280;74102;49.084;13.694;2024-02-04T02:49:42;93855.69;;;5.64;80.95
84020;BME280;74102;49.084;13.694;2024-02-04T02:52:08;93843.28;;;5.68;80.58
84020;BME280;74102;49.084;13.694;2024-02-04T02:54:34;93854.84;;;5.64;80.22
84020;BME280;74102;49.084;13.694;2024-02-04T02:56:59;93846.81;;;5.67;80.36
84020;BME280;74102;49.084;13.694;2024-02-04T02:59:24;93848.72;;;5.65;79.92
84020;BME280;74102;49.084;13.694;2024-02-04T03:01:50;93849.25;;;5.68;80.17
84020;BME280;74102;49.084;13.694;2024-02-04T03:04:15;93848.19;;;5.71;79.84
84020;BME280;74102;49.084;13.694;2024-02-04T03:06:40;93841.09;;;5.73;80.25
84020;BME280;74102;49.084;13.694;2024-02-04T03:09:06;93837.56;;;5.74;80.28
84020;BME280;74102;49.084;13.694;2024-02-04T03:11:31;93832.88;;;5.68;80.47
84020;BME280;74102;49.084;13.694;2024-02-04T03:13:57;93825.78;;;5.70;80.24
84020;BME280;74102;49.084;13.694;2024-02-04T03:16:22;93838.75;;;5.70;80.16
84020;BME280;74102;49.084;13.694;2024-02-04T03:18:48;93831.50;;;5.64;80.67
84020;BME280;74102;49.084;13.694;2024-02-04T03:21:14;93829.59;;;5.66;80.73
84020;BME280;74102;49.084;13.694;2024-02-04T03:23:41;93829.72;;;5.64;80.68
84020;BME280;74102;49.084;13.694;2024-02-04T03:26:07;93844.31;;;5.65;80.99
84020;BME280;74102;49.084;13.694;2024-02-04T03:28:32;93848.47;;;5.68;80.90
84020;BME280;74102;49.084;13.694;2024-02-04T03:30:58;93857.88;;;5.69;80.74
84020;BME280;74102;49.084;13.694;2024-02-04T03:33:23;93850.66;;;5.72;80.54
84020;BME280;74102;49.084;13.694;2024-02-04T03:35:49;93855.72;;;5.74;80.30
84020;BME280;74102;49.084;13.694;2024-02-04T03:38:14;93870.31;;;5.75;80.79
84020;BME280;74102;49.084;13.694;2024-02-04T03:40:39;93865.13;;;5.75;80.66
84020;BME280;74102;49.084;13.694;2024-02-04T03:43:08;93874.72;;;5.74;80.52
84020;BME280;74102;49.084;13.694;2024-02-04T03:45:35;93879.91;;;5.74;81.34
84020;BME280;74102;49.084;13.694;2024-02-04T03:48:00;93885.63;;;5.78;81.75
84020;BME280;74102;49.084;13.694;2024-02-04T03:50:26;93889.19;;;5.77;81.77
84020;BME280;74102;49.084;13.694;2024-02-04T03:52:51;93881.94;;;5.71;81.98
84020;BME280;74102;49.084;13.694;2024-02-04T03:55:16;93910.47;;;5.71;82.04
84020;BME280;74102;49.084;13.694;2024-02-04T03:57:42;93899.78;;;5.64;81.60
84020;BME280;74102;49.084;13.694;2024-02-04T04:00:08;93900.34;;;5.68;81.49
84020;BME280;74102;49.084;13.694;2024-02-04T04:02:34;93895.84;;;5.70;81.93
84020;BME280;74102;49.084;13.694;2024-02-04T04:04:59;93912.09;;;5.72;82.01
84020;BME280;74102;49.084;13.694;2024-02-04T04:07:24;93920.59;;;5.74;81.03
84020;BME280;74102;49.084;13.694;2024-02-04T04:09:50;93914.69;;;5.72;81.41
84020;BME280;74102;49.084;13.694;2024-02-04T04:12:15;93905.03;;;5.74;81.24
84020;BME280;74102;49.084;13.694;2024-02-04T04:14:40;93901.72;;;5.72;80.90
84020;BME280;74102;49.084;13.694;2024-02-04T04:17:06;93897.66;;;5.79;81.25
84020;BME280;74102;49.084;13.694;2024-02-04T04:19:31;93896.00;;;5.78;80.68
84020;BME280;74102;49.084;13.694;2024-02-04T04:21:58;93909.13;;;5.76;80.54
84020;BME280;74102;49.084;13.694;2024-02-04T04:24:25;93878.53;;;5.80;81.01
84020;BME280;74102;49.084;13.694;2024-02-04T04:26:50;93888.94;;;5.80;80.34
84020;BME280;74102;49.084;13.694;2024-02-04T04:29:15;93873.09;;;5.83;80.55
84020;BME280;74102;49.084;13.694;2024-02-04T04:31:41;93879.94;;;5.84;80.00
84020;BME280;74102;49.084;13.694;2024-02-04T04:34:06;93870.50;;;5.83;80.25
84020;BME280;74102;49.084;13.694;2024-02-04T04:36:32;93881.00;;;5.81;80.14
84020;BME280;74102;49.084;13.694;2024-02-04T04:38:57;93875.25;;;5.78;80.16
84020;BME280;74102;49.084;13.694;2024-02-04T04:41:22;93889.59;;;5.82;80.42
84020;BME280;74102;49.084;13.694;2024-02-04T04:43:48;93885.38;;;5.81;80.16
84020;BME280;74102;49.084;13.694;2024-02-04T04:46:13;93881.56;;;5.85;79.59
84020;BME280;74102;49.084;13.694;2024-02-04T04:48:38;93876.50;;;5.83;79.63
84020;BME280;74102;49.084;13.694;2024-02-04T04:51:04;93878.06;;;5.86;79.41
84020;BME280;74102;49.084;13.694;2024-02-04T04:53:29;93886.50;;;5.88;79.26
84020;BME280;74102;49.084;13.694;2024-02-04T04:55:55;93883.25;;;5.86;78.89
84020;BME280;74102;49.084;13.694;2024-02-04T04:58:20;93880.28;;;5.91;79.07
84020;BME280;74102;49.084;13.694;2024-02-04T05:00:46;93872.88;;;5.86;79.46
84020;BME280;74102;49.084;13.694;2024-02-04T05:03:11;93876.84;;;5.90;79.13
84020;BME280;74102;49.084;13.694;2024-02-04T05:05:36;93870.94;;;5.88;79.50
84020;BME280;74102;49.084;13.694;2024-02-04T05:08:02;93872.16;;;5.84;79.07
84020;BME280;74102;49.084;13.694;2024-02-04T05:10:27;93872.88;;;5.86;79.12
84020;BME280;74102;49.084;13.694;2024-02-04T05:12:53;93871.44;;;5.82;78.83
84020;BME280;74102;49.084;13.694;2024-02-04T05:15:18;93858.47;;;5.82;78.83
84020;BME280;74102;49.084;13.694;2024-02-04T05:17:43;93849.06;;;5.81;78.85
84020;BME280;74102;49.084;13.694;2024-02-04T05:20:09;93841.00;;;5.84;78.74
84020;BME280;74102;49.084;13.694;2024-02-04T05:22:35;93847.81;;;5.85;78.35
84020;BME280;74102;49.084;13.694;2024-02-04T05:25:00;93824.47;;;5.85;78.26
84020;BME280;74102;49.084;13.694;2024-02-04T05:27:26;93830.06;;;5.80;78.50
84020;BME280;74102;49.084;13.694;2024-02-04T05:29:51;93829.09;;;5.81;78.46
84020;BME280;74102;49.084;13.694;2024-02-04T05:32:16;93824.72;;;5.82;78.42
84020;BME280;74102;49.084;13.694;2024-02-04T05:34:42;93824.16;;;5.78;78.28
84020;BME280;74102;49.084;13.694;2024-02-04T05:37:07;93818.16;;;5.78;78.17
84020;BME280;74102;49.084;13.694;2024-02-04T05:39:33;93816.78;;;5.74;78.37
84020;BME280;74102;49.084;13.694;2024-02-04T05:41:58;93820.06;;;5.76;78.25
84020;BME280;74102;49.084;13.694;2024-02-04T05:44:23;93815.81;;;5.75;78.46
84020;BME280;74102;49.084;13.694;2024-02-04T05:46:49;93809.56;;;5.77;78.32
84020;BME280;74102;49.084;13.694;2024-02-04T05:49:14;93817.47;;;5.76;78.09
84020;BME280;74102;49.084;13.694;2024-02-04T05:51:40;93815.97;;;5.73;78.28
84020;BME280;74102;49.084;13.694;2024-02-04T05:54:06;93818.69;;;5.72;78.84
84020;BME280;74102;49.084;13.694;2024-02-04T05:56:32;93821.97;;;5.74;78.55
84020;BME280;74102;49.084;13.694;2024-02-04T05:58:57;93822.81;;;5.74;78.29
84020;BME280;74102;49.084;13.694;2024-02-04T06:01:23;93820.31;;;5.73;78.72
84020;BME280;74102;49.084;13.694;2024-02-04T06:03:48;93815.41;;;5.70;78.77
84020;BME280;74102;49.084;13.694;2024-02-04T06:06:17;93821.41;;;5.70;78.98
84020;BME280;74102;49.084;13.694;2024-02-04T06:08:45;93808.28;;;5.72;78.95
84020;BME280;74102;49.084;13.694;2024-02-04T06:11:12;93808.28;;;5.72;78.57
84020;BME280;74102;49.084;13.694;2024-02-04T06:13:46;93816.50;;;5.67;78.60
84020;BME280;74102;49.084;13.694;2024-02-04T06:16:12;93808.97;;;5.64;78.85
84020;BME280;74102;49.084;13.694;2024-02-04T06:18:38;93811.69;;;5.63;79.27
84020;BME280;74102;49.084;13.694;2024-02-04T06:21:04;93817.13;;;5.60;78.82
84020;BME280;74102;49.084;13.694;2024-02-04T06:23:30;93812.88;;;5.59;79.27
84020;BME280;74102;49.084;13.694;2024-02-04T06:25:55;93805.09;;;5.59;78.88
84020;BME280;74102;49.084;13.694;2024-02-04T06:28:21;93816.47;;;5.58;78.90
84020;BME280;74102;49.084;13.694;2024-02-04T06:30:46;93815.75;;;5.56;78.99
84020;BME280;74102;49.084;13.694;2024-02-04T06:33:11;93807.41;;;5.52;79.14
84020;BME280;74102;49.084;13.694;2024-02-04T06:35:37;93813.69;;;5.50;79.57
84020;BME280;74102;49.084;13.694;2024-02-04T06:38:02;93840.34;;;5.52;79.28
84020;BME280;74102;49.084;13.694;2024-02-04T06:40:28;93833.34;;;5.52;79.64
84020;BME280;74102;49.084;13.694;2024-02-04T06:42:53;93831.84;;;5.50;79.58
84020;BME280;74102;49.084;13.694;2024-02-04T06:45:18;93832.53;;;5.52;79.23
84020;BME280;74102;49.084;13.694;2024-02-04T06:47:44;93833.50;;;5.51;79.68
84020;BME280;74102;49.084;13.694;2024-02-04T06:50:10;93855.19;;;5.50;79.12
84020;BME280;74102;49.084;13.694;2024-02-04T06:52:39;93822.44;;;5.49;79.01
84020;BME280;74102;49.084;13.694;2024-02-04T06:55:06;93832.53;;;5.52;78.88
84020;BME280;74102;49.084;13.694;2024-02-04T06:57:31;93823.78;;;5.53;78.80
84020;BME280;74102;49.084;13.694;2024-02-04T06:59:56;93836.09;;;5.51;78.86
84020;BME280;74102;49.084;13.694;2024-02-04T07:02:22;93834.44;;;5.50;78.85
84020;BME280;74102;49.084;13.694;2024-02-04T07:04:47;93833.91;;;5.56;78.57
84020;BME280;74102;49.084;13.694;2024-02-04T07:07:12;93838.31;;;5.55;78.47
84020;BME280;74102;49.084;13.694;2024-02-04T07:09:38;93827.09;;;5.55;78.29
84020;BME280;74102;49.084;13.694;2024-02-04T07:12:04;93823.78;;;5.53;78.62
84020;BME280;74102;49.084;13.694;2024-02-04T07:14:29;93821.91;;;5.55;78.05
84020;BME280;74102;49.084;13.694;2024-02-04T07:16:55;93834.88;;;5.55;78.27
84020;BME280;74102;49.084;13.694;2024-02-04T07:19:20;93843.19;;;5.49;78.54
84020;BME280;74102;49.084;13.694;2024-02-04T07:21:45;93832.28;;;5.55;78.89
84020;BME280;74102;49.084;13.694;2024-02-04T07:24:11;93837.22;;;5.58;78.77
84020;BME280;74102;49.084;13.694;2024-02-04T07:26:36;93836.94;;;5.61;79.17
84020;BME280;74102;49.084;13.694;2024-02-04T07:29:01;93852.50;;;5.61;78.85
84020;BME280;74102;49.084;13.694;2024-02-04T07:31:27;93855.38;;;5.58;79.11
84020;BME280;74102;49.084;13.694;2024-02-04T07:33:52;93835.03;;;5.63;78.75
84020;BME280;74102;49.084;13.694;2024-02-04T07:36:17;93819.22;;;5.66;79.29
84020;BME280;74102;49.084;13.694;2024-02-04T07:38:43;93824.97;;;5.69;78.78
84020;BME280;74102;49.084;13.694;2024-02-04T07:41:08;93820.59;;;5.70;78.37
84020;BME280;74102;49.084;13.694;2024-02-04T07:43:34;93831.78;;;5.70;77.63
84020;BME280;74102;49.084;13.694;2024-02-04T07:45:59;93824.16;;;5.78;77.38
84020;BME280;74102;49.084;13.694;2024-02-04T07:48:25;93825.94;;;5.78;76.89
84020;BME280;74102;49.084;13.694;2024-02-04T07:50:50;93831.56;;;5.83;76.27
84020;BME280;74102;49.084;13.694;2024-02-04T07:53:15;93827.78;;;5.87;76.42
84020;BME280;74102;49.084;13.694;2024-02-04T07:55:41;93831.34;;;5.86;76.56
84020;BME280;74102;49.084;13.694;2024-02-04T07:58:06;93827.53;;;5.90;76.75
84020;BME280;74102;49.084;13.694;2024-02-04T08:00:32;93833.66;;;5.89;76.47
84020;BME280;74102;49.084;13.694;2024-02-04T08:02:57;93832.72;;;5.90;76.48
84020;BME280;74102;49.084;13.694;2024-02-04T08:05:22;93827.53;;;5.90;76.26
84020;BME280;74102;49.084;13.694;2024-02-04T08:07:48;93812.38;;;5.95;76.54
84020;BME280;74102;49.084;13.694;2024-02-04T08:10:13;93803.63;;;5.96;77.09
84020;BME280;74102;49.084;13.694;2024-02-04T08:12:40;93820.41;;;5.92;77.21
84020;BME280;74102;49.084;13.694;2024-02-04T08:15:06;93826.13;;;5.86;77.37
84020;BME280;74102;49.084;13.694;2024-02-04T08:17:31;93810.41;;;5.88;77.42
84020;BME280;74102;49.084;13.694;2024-02-04T08:19:58;93795.22;;;5.83;76.63
84020;BME280;74102;49.084;13.694;2024-02-04T08:22:23;93799.91;;;5.89;76.53
84020;BME280;74102;49.084;13.694;2024-02-04T08:24:49;93804.00;;;5.92;76.09
84020;BME280;74102;49.084;13.694;2024-02-04T08:27:14;93799.66;;;5.92;76.35
84020;BME280;74102;49.084;13.694;2024-02-04T08:29:43;93851.03;;;5.98;75.28
84020;BME280;74102;49.084;13.694;2024-02-04T08:32:09;93817.72;;;6.03;75.17
84020;BME280;74102;49.084;13.694;2024-02-04T08:34:34;93789.56;;;6.08;75.44
84020;BME280;74102;49.084;13.694;2024-02-04T08:36:59;93789.19;;;6.13;75.56
84020;BME280;74102;49.084;13.694;2024-02-04T08:39:25;93804.63;;;6.14;75.50
84020;BME280;74102;49.084;13.694;2024-02-04T08:41:51;93773.88;;;6.19;75.23
84020;BME280;74102;49.084;13.694;2024-02-04T08:44:18;93749.97;;;6.25;75.28
84020;BME280;74102;49.084;13.694;2024-02-04T08:46:43;93767.16;;;6.26;75.03
84020;BME280;74102;49.084;13.694;2024-02-04T08:49:08;93770.88;;;6.33;74.85
84020;BME280;74102;49.084;13.694;2024-02-04T08:51:35;93756.22;;;6.32;74.65
84020;BME280;74102;49.084;13.694;2024-02-04T08:54:00;93793.69;;;6.30;74.53
84020;BME280;74102;49.084;13.694;2024-02-04T08:56:25;93768.53;;;6.30;73.89
84020;BME280;74102;49.084;13.694;2024-02-04T08:58:51;93771.03;;;6.32;74.04
84020;BME280;74102;49.084;13.694;2024-02-04T09:01:16;93777.84;;;6.33;74.30
84020;BME280;74102;49.084;13.694;2024-02-04T09:03:42;93795.91;;;6.34;74.42
84020;BME280;74102;49.084;13.694;2024-02-04T09:06:08;93774.84;;;6.38;74.70
84020;BME280;74102;49.084;13.694;2024-02-04T09:08:34;93785.50;;;6.34;74.87
84020;BME280;74102;49.084;13.694;2024-02-04T09:11:01;93784.00;;;6.32;74.57
84020;BME280;74102;49.084;13.694;2024-02-04T09:13:26;93761.19;;;6.35;75.13
84020;BME280;74102;49.084;13.694;2024-02-04T09:15:52;93782.75;;;6.26;74.99
84020;BME280;74102;49.084;13.694;2024-02-04T09:18:19;93790.69;;;6.25;75.34
84020;BME280;74102;49.084;13.694;2024-02-04T09:20:45;93788.22;;;6.23;75.51
84020;BME280;74102;49.084;13.694;2024-02-04T09:23:10;93792.06;;;6.19;75.85
84020;BME280;74102;49.084;13.694;2024-02-04T09:25:35;93804.91;;;6.21;75.48
84020;BME280;74102;49.084;13.694;2024-02-04T09:28:01;93788.91;;;6.25;75.40
84020;BME280;74102;49.084;13.694;2024-02-04T09:30:26;93768.00;;;6.36;75.41
84020;BME280;74102;49.084;13.694;2024-02-04T09:32:52;93762.13;;;6.34;74.98
84020;BME280;74102;49.084;13.694;2024-02-04T09:35:17;93764.44;;;6.38;74.99
84020;BME280;74102;49.084;13.694;2024-02-04T09:37:43;93787.94;;;6.36;74.72
84020;BME280;74102;49.084;13.694;2024-02-04T09:40:08;93770.31;;;6.49;74.94
84020;BME280;74102;49.084;13.694;2024-02-04T09:42:34;93774.97;;;6.55;74.60
84020;BME280;74102;49.084;13.694;2024-02-04T09:44:59;93784.41;;;6.66;74.34
84020;BME280;74102;49.084;13.694;2024-02-04T09:47:25;93791.53;;;6.64;74.62
84020;BME280;74102;49.084;13.694;2024-02-04T09:49:52;93791.63;;;6.72;74.35
84020;BME280;74102;49.084;13.694;2024-02-04T09:52:34;93803.69;;;6.73;74.59
84020;BME280;74102;49.084;13.694;2024-02-04T09:55:04;93798.09;;;6.77;74.52
84020;BME280;74102;49.084;13.694;2024-02-04T09:57:32;93806.56;;;6.70;74.64
84020;BME280;74102;49.084;13.694;2024-02-04T09:59:58;93796.16;;;6.70;75.05
84020;BME280;74102;49.084;13.694;2024-02-04T10:02:24;93796.72;;;6.64;75.36
84020;BME280;74102;49.084;13.694;2024-02-04T10:04:50;93805.88;;;6.68;75.63
84020;BME280;74102;49.084;13.694;2024-02-04T10:07:15;93844.59;;;6.71;75.43
84020;BME280;74102;49.084;13.694;2024-02-04T10:09:46;93808.72;;;6.84;75.68
84020;BME280;74102;49.084;13.694;2024-02-04T10:12:11;93786.28;;;6.93;75.23
84020;BME280;74102;49.084;13.694;2024-02-04T10:14:37;93792.31;;;7.03;75.02
84020;BME280;74102;49.084;13.694;2024-02-04T10:17:03;93794.75;;;7.04;75.22
84020;BME280;74102;49.084;13.694;2024-02-04T10:19:29;93789.78;;;7.20;74.88
84020;BME280;74102;49.084;13.694;2024-02-04T10:22:02;93793.56;;;7.35;75.06
84020;BME280;74102;49.084;13.694;2024-02-04T10:24:28;93793.56;;;7.35;74.25
84020;BME280;74102;49.084;13.694;2024-02-04T10:26:56;93787.81;;;7.41;74.57
84020;BME280;74102;49.084;13.694;2024-02-04T10:29:23;93785.63;;;7.37;74.31
84020;BME280;74102;49.084;13.694;2024-02-04T10:31:48;93779.59;;;7.36;74.55
84020;BME280;74102;49.084;13.694;2024-02-04T10:34:14;93791.69;;;7.28;74.82
84020;BME280;74102;49.084;13.694;2024-02-04T10:36:39;93771.19;;;7.15;75.56
84020;BME280;74102;49.084;13.694;2024-02-04T10:39:05;93775.84;;;7.12;75.82
84020;BME280;74102;49.084;13.694;2024-02-04T10:41:33;93811.16;;;7.14;76.10
84020;BME280;74102;49.084;13.694;2024-02-04T10:44:02;93773.38;;;7.10;76.36
84020;BME280;74102;49.084;13.694;2024-02-04T10:46:30;93757.50;;;7.13;76.20
84020;BME280;74102;49.084;13.694;2024-02-04T10:48:59;93756.41;;;7.16;75.87
84020;BME280;74102;49.084;13.694;2024-02-04T10:51:26;93752.00;;;7.16;75.35
84020;BME280;74102;49.084;13.694;2024-02-04T10:53:54;93753.09;;;7.23;75.68
84020;BME280;74102;49.084;13.694;2024-02-04T10:56:29;93737.63;;;7.22;74.42
84020;BME280;74102;49.084;13.694;2024-02-04T10:58:56;93727.06;;;7.23;74.44
84020;BME280;74102;49.084;13.694;2024-02-04T11:01:24;93731.41;;;7.32;73.71
84020;BME280;74102;49.084;13.694;2024-02-04T11:03:51;93736.84;;;7.39;73.83
84020;BME280;74102;49.084;13.694;2024-02-04T11:06:20;93764.66;;;7.38;73.54
84020;BME280;74102;49.084;13.694;2024-02-04T11:08:46;93734.13;;;7.40;73.65
84020;BME280;74102;49.084;13.694;2024-02-04T11:11:11;93731.91;;;7.46;73.49
84020;BME280;74102;49.084;13.694;2024-02-04T11:13:38;93728.06;;;7.50;73.68
84020;BME280;74102;49.084;13.694;2024-02-04T11:16:08;93725.81;;;7.55;73.39
84020;BME280;74102;49.084;13.694;2024-02-04T11:27:33;93753.78;;;7.53;73.13
84020;BME280;74102;49.084;13.694;2024-02-04T11:29:59;93746.19;;;7.41;72.76
84020;BME280;74102;49.084;13.694;2024-02-04T11:32:24;93747.44;;;7.37;72.71
84020;BME280;74102;49.084;13.694;2024-02-04T11:34:50;93751.38;;;7.41;72.55
84020;BME280;74102;49.084;13.694;2024-02-04T11:37:17;93717.44;;;7.33;72.55
84020;BME280;74102;49.084;13.694;2024-02-04T11:39:51;93740.56;;;7.36;72.17
84020;BME280;74102;49.084;13.694;2024-02-04T11:42:16;93728.94;;;7.40;72.50
84020;BME280;74102;49.084;13.694;2024-02-04T11:44:44;93725.91;;;7.35;72.59
84020;BME280;74102;49.084;13.694;2024-02-04T11:47:10;93728.44;;;7.27;72.54
84020;BME280;74102;49.084;13.694;2024-02-04T11:49:36;93707.03;;;7.33;72.77
84020;BME280;74102;49.084;13.694;2024-02-04T11:52:01;93725.63;;;7.38;72.59
84020;BME280;74102;49.084;13.694;2024-02-04T11:54:27;93698.28;;;7.34;72.89
84020;BME280;74102;49.084;13.694;2024-02-04T11:56:53;93728.00;;;7.32;72.83
84020;BME280;74102;49.084;13.694;2024-02-04T11:59:19;93720.63;;;7.27;73.13
84020;BME280;74102;49.084;13.694;2024-02-04T12:01:47;93707.34;;;7.30;73.06
84020;BME280;74102;49.084;13.694;2024-02-04T12:04:13;93704.84;;;7.29;73.75
84020;BME280;74102;49.084;13.694;2024-02-04T12:06:42;93716.91;;;7.30;73.79
84020;BME280;74102;49.084;13.694;2024-02-04T12:09:08;93714.47;;;7.28;73.49
84020;BME280;74102;49.084;13.694;2024-02-04T12:11:36;93713.66;;;7.28;73.10
84020;BME280;74102;49.084;13.694;2024-02-04T12:14:03;93721.88;;;7.23;73.47
84020;BME280;74102;49.084;13.694;2024-02-04T12:16:31;93693.69;;;7.19;73.86
84020;BME280;74102;49.084;13.694;2024-02-04T12:18:57;93693.81;;;7.17;74.00
84020;BME280;74102;49.084;13.694;2024-02-04T12:21:24;93712.56;;;7.21;74.02
84020;BME280;74102;49.084;13.694;2024-02-04T12:23:50;93675.63;;;7.17;73.37
84020;BME280;74102;49.084;13.694;2024-02-04T12:26:16;93682.84;;;7.23;73.50
84020;BME280;74102;49.084;13.694;2024-02-04T12:28:41;93678.47;;;7.24;74.02
84020;BME280;74102;49.084;13.694;2024-02-04T12:31:07;93678.88;;;7.19;73.61
84020;BME280;74102;49.084;13.694;2024-02-04T12:33:33;93684.09;;;7.19;73.83
84020;BME280;74102;49.084;13.694;2024-02-04T12:35:59;93678.88;;;7.19;73.44
84020;BME280;74102;49.084;13.694;2024-02-04T12:38:25;93666.00;;;7.27;73.28
84020;BME280;74102;49.084;13.694;2024-02-04T12:40:51;93658.84;;;7.29;73.39
84020;BME280;74102;49.084;13.694;2024-02-04T12:43:26;93657.81;;;7.22;73.49
84020;BME280;74102;49.084;13.694;2024-02-04T12:45:56;93655.34;;;7.21;73.15
84020;BME280;74102;49.084;13.694;2024-02-04T12:48:22;93654.53;;;7.20;73.09
84020;BME280;74102;49.084;13.694;2024-02-04T12:50:48;93644.53;;;7.25;72.85
84020;BME280;74102;49.084;13.694;2024-02-04T12:53:13;93639.63;;;7.22;72.85
84020;BME280;74102;49.084;13.694;2024-02-04T12:55:40;93641.16;;;7.15;73.10
84020;BME280;74102;49.084;13.694;2024-02-04T12:58:09;93636.44;;;7.28;72.69
84020;BME280;74102;49.084;13.694;2024-02-04T13:00:37;93635.59;;;7.28;72.83
84020;BME280;74102;49.084;13.694;2024-02-04T13:03:04;93638.03;;;7.29;73.02
84020;BME280;74102;49.084;13.694;2024-02-04T13:05:31;93645.78;;;7.21;73.19
84020;BME280;74102;49.084;13.694;2024-02-04T13:08:01;93634.31;;;7.14;73.48